This is the latest recevied weather packets stored in our database for station/object KB2UHF-8. If no packets are shown the sender has not sent any weather packets the latest 10 day(s).
| Time | Temp. | Humidity | Pressure | Rain* | Wind** | Luminosity | Snow |
|---|---|---|---|---|---|---|---|
| 1777997117 | 8.89° C | 37% | 1009.1 hPa | 0 mm | - | 883 W/m² | - |
| 1777991117 | 7.22° C | 47% | 1008.9 hPa | 0 mm | - | 591 W/m² | - |
| 1777989917 | 7.78° C | 49% | 1008.9 hPa | 0 mm | - | 533 W/m² | - |
| 1777989317 | 7.22° C | 49% | 1008.9 hPa | 0 mm | - | 502 W/m² | - |
| 1777988717 | 7.22° C | 52% | 1009 hPa | 0 mm | - | 474 W/m² | - |
| 1777986317 | 6.11° C | 54% | 1008.9 hPa | 0 mm | - | 357 W/m² | - |
| 1777978517 | 3.89° C | 63% | 1006.8 hPa | 0 mm | - | 6 W/m² | - |
| 1777977917 | 4.44° C | 62% | 1006.9 hPa | 0 mm | - | 0 W/m² | - |
| 1777976717 | 4.44° C | 60% | 1006.8 hPa | 0 mm | - | 0 W/m² | - |
| 1777973737 | 5° C | 58% | 1006.7 hPa | 0 mm | - | 0 W/m² | - |
| 1777968917 | 6.11° C | 57% | 1005.7 hPa | 0 mm | - | 0 W/m² | - |
| 1777965916 | 6.67° C | 50% | 1005.2 hPa | 0 mm | - | 0 W/m² | - |
| 1777962916 | 7.78° C | 49% | 1005.7 hPa | 0 mm | - | 0 W/m² | - |
| 1777961137 | 7.78° C | 50% | 1005.6 hPa | 0 mm | - | 0 W/m² | - |
| 1777958716 | 9.44° C | 48% | 1005.2 hPa | 0 mm | - | 0 W/m² | - |
| 1777954517 | 10.56° C | 49% | 1004.3 hPa | 0 mm | - | 0 W/m² | - |
| 1777953917 | 10.56° C | 48% | 1004.1 hPa | 0 mm | - | 0 W/m² | - |
| 1777948518 | 12.78° C | 44% | 1002.4 hPa | 0 mm | - | 0 W/m² | - |
| 1777946117 | 13.33° C | 42% | 1001.2 hPa | 0 mm | - | 0 W/m² | - |
| 1777940717 | 15.56° C | 34% | 1000 hPa | 0 mm | - | 44 W/m² | - |
| 1777936558 | 17.22° C | 34% | 999.4 hPa | 0 mm | - | 102 W/m² | - |
| 1777934716 | 17.22° C | 34% | 999.1 hPa | 0 mm | - | 158 W/m² | - |
| 1777932916 | 18.33° C | 32% | 999 hPa | 0 mm | - | 287 W/m² | - |
| 1777927516 | 21.67° C | 39% | 997.8 hPa | 0 mm | - | 514 W/m² | - |
| 1777926916 | 21.67° C | 37% | 997.8 hPa | 0 mm | - | 513 W/m² | - |
* Rain latest hour (hover to see other rain measurements)
** Current wind speed in m/s (hover to see current wind gust speed)